sensor_id;sensor_type;location;lat;lon;timestamp;P1;durP1;ratioP1;P2;durP2;ratioP2
10295;SDS011;5193;51.032;6.356;2022-11-10T00:01:56;5.90;;;1.60;;
10295;SDS011;5193;51.032;6.356;2022-11-10T00:04:21;12.70;;;1.83;;
10295;SDS011;5193;51.032;6.356;2022-11-10T00:06:47;9.00;;;1.70;;
10295;SDS011;5193;51.032;6.356;2022-11-10T00:09:13;10.57;;;1.93;;
10295;SDS011;5193;51.032;6.356;2022-11-10T00:11:39;7.50;;;1.60;;
10295;SDS011;5193;51.032;6.356;2022-11-10T00:14:05;10.27;;;1.90;;
10295;SDS011;5193;51.032;6.356;2022-11-10T00:16:50;7.30;;;1.73;;
10295;SDS011;5193;51.032;6.356;2022-11-10T00:19:30;4.93;;;1.57;;
10295;SDS011;5193;51.032;6.356;2022-11-10T00:21:57;8.20;;;2.00;;
10295;SDS011;5193;51.032;6.356;2022-11-10T00:24:24;10.00;;;2.20;;
10295;SDS011;5193;51.032;6.356;2022-11-10T00:26:50;7.87;;;1.83;;
10295;SDS011;5193;51.032;6.356;2022-11-10T00:29:15;4.67;;;1.57;;
10295;SDS011;5193;51.032;6.356;2022-11-10T00:31:41;15.50;;;2.37;;
10295;SDS011;5193;51.032;6.356;2022-11-10T00:34:12;13.30;;;1.73;;
10295;SDS011;5193;51.032;6.356;2022-11-10T00:36:39;11.83;;;1.90;;
10295;SDS011;5193;51.032;6.356;2022-11-10T00:39:05;9.20;;;2.17;;
10295;SDS011;5193;51.032;6.356;2022-11-10T00:41:31;11.83;;;1.90;;
10295;SDS011;5193;51.032;6.356;2022-11-10T00:43:57;4.20;;;1.73;;
10295;SDS011;5193;51.032;6.356;2022-11-10T00:46:22;9.23;;;2.00;;
10295;SDS011;5193;51.032;6.356;2022-11-10T00:48:48;10.73;;;2.03;;
10295;SDS011;5193;51.032;6.356;2022-11-10T00:51:24;7.17;;;1.70;;
10295;SDS011;5193;51.032;6.356;2022-11-10T00:53:51;6.60;;;1.80;;
10295;SDS011;5193;51.032;6.356;2022-11-10T00:56:19;6.70;;;1.80;;
10295;SDS011;5193;51.032;6.356;2022-11-10T00:58:45;11.07;;;2.90;;
10295;SDS011;5193;51.032;6.356;2022-11-10T01:01:11;7.40;;;1.63;;
10295;SDS011;5193;51.032;6.356;2022-11-10T01:03:38;13.57;;;2.43;;
10295;SDS011;5193;51.032;6.356;2022-11-10T01:06:07;8.07;;;2.00;;
10295;SDS011;5193;51.032;6.356;2022-11-10T01:08:38;7.47;;;2.10;;
10295;SDS011;5193;51.032;6.356;2022-11-10T01:13:41;12.90;;;2.27;;
10295;SDS011;5193;51.032;6.356;2022-11-10T01:16:10;8.40;;;2.00;;
10295;SDS011;5193;51.032;6.356;2022-11-10T01:18:40;9.07;;;2.37;;
10295;SDS011;5193;51.032;6.356;2022-11-10T01:21:07;11.00;;;2.30;;
10295;SDS011;5193;51.032;6.356;2022-11-10T01:23:33;10.30;;;2.10;;
10295;SDS011;5193;51.032;6.356;2022-11-10T01:26:03;8.97;;;2.30;;
10295;SDS011;5193;51.032;6.356;2022-11-10T01:28:30;9.60;;;1.63;;
10295;SDS011;5193;51.032;6.356;2022-11-10T01:31:06;13.70;;;2.07;;
10295;SDS011;5193;51.032;6.356;2022-11-10T01:33:33;5.00;;;1.73;;
10295;SDS011;5193;51.032;6.356;2022-11-10T01:35:59;12.33;;;2.03;;
10295;SDS011;5193;51.032;6.356;2022-11-10T01:38:26;7.67;;;2.03;;
10295;SDS011;5193;51.032;6.356;2022-11-10T01:40:53;6.97;;;1.87;;
10295;SDS011;5193;51.032;6.356;2022-11-10T01:43:19;7.93;;;1.80;;
10295;SDS011;5193;51.032;6.356;2022-11-10T01:48:27;6.87;;;1.60;;
10295;SDS011;5193;51.032;6.356;2022-11-10T01:53:50;6.83;;;1.67;;
10295;SDS011;5193;51.032;6.356;2022-11-10T01:56:20;6.47;;;1.30;;
10295;SDS011;5193;51.032;6.356;2022-11-10T01:58:49;6.53;;;1.97;;
10295;SDS011;5193;51.032;6.356;2022-11-10T02:01:18;11.03;;;1.97;;
10295;SDS011;5193;51.032;6.356;2022-11-10T02:06:12;10.50;;;1.93;;
10295;SDS011;5193;51.032;6.356;2022-11-10T02:08:40;9.07;;;2.13;;
10295;SDS011;5193;51.032;6.356;2022-11-10T02:11:06;7.00;;;1.97;;
10295;SDS011;5193;51.032;6.356;2022-11-10T02:13:31;9.90;;;1.90;;
10295;SDS011;5193;51.032;6.356;2022-11-10T02:15:57;7.60;;;1.87;;
10295;SDS011;5193;51.032;6.356;2022-11-10T02:18:23;9.03;;;2.50;;
10295;SDS011;5193;51.032;6.356;2022-11-10T02:20:48;13.57;;;2.10;;
10295;SDS011;5193;51.032;6.356;2022-11-10T02:23:59;18.43;;;2.10;;
10295;SDS011;5193;51.032;6.356;2022-11-10T02:26:01;10.83;;;1.87;;
10295;SDS011;5193;51.032;6.356;2022-11-10T02:28:31;9.50;;;1.80;;
10295;SDS011;5193;51.032;6.356;2022-11-10T02:30:58;9.97;;;1.97;;
10295;SDS011;5193;51.032;6.356;2022-11-10T02:33:24;14.70;;;2.17;;
10295;SDS011;5193;51.032;6.356;2022-11-10T02:35:50;10.00;;;1.97;;
10295;SDS011;5193;51.032;6.356;2022-11-10T02:38:15;12.27;;;2.30;;
10295;SDS011;5193;51.032;6.356;2022-11-10T02:40:41;10.53;;;1.90;;
10295;SDS011;5193;51.032;6.356;2022-11-10T02:43:07;9.23;;;2.17;;
10295;SDS011;5193;51.032;6.356;2022-11-10T02:45:35;10.90;;;1.93;;
10295;SDS011;5193;51.032;6.356;2022-11-10T02:48:06;7.87;;;1.40;;
10295;SDS011;5193;51.032;6.356;2022-11-10T02:50:32;9.43;;;1.70;;
10295;SDS011;5193;51.032;6.356;2022-11-10T02:52:58;8.77;;;1.63;;
10295;SDS011;5193;51.032;6.356;2022-11-10T02:55:23;14.37;;;2.17;;
10295;SDS011;5193;51.032;6.356;2022-11-10T02:57:49;9.83;;;2.23;;
10295;SDS011;5193;51.032;6.356;2022-11-10T03:00:14;8.37;;;1.93;;
10295;SDS011;5193;51.032;6.356;2022-11-10T03:02:40;7.90;;;1.67;;
10295;SDS011;5193;51.032;6.356;2022-11-10T03:05:06;11.67;;;1.57;;
10295;SDS011;5193;51.032;6.356;2022-11-10T03:07:31;13.70;;;2.13;;
10295;SDS011;5193;51.032;6.356;2022-11-10T03:09:57;11.37;;;2.03;;
10295;SDS011;5193;51.032;6.356;2022-11-10T03:12:22;10.53;;;3.17;;
10295;SDS011;5193;51.032;6.356;2022-11-10T03:14:48;10.77;;;2.13;;
10295;SDS011;5193;51.032;6.356;2022-11-10T03:17:14;9.77;;;2.20;;
10295;SDS011;5193;51.032;6.356;2022-11-10T03:19:39;12.00;;;2.57;;
10295;SDS011;5193;51.032;6.356;2022-11-10T03:22:05;13.57;;;2.07;;
10295;SDS011;5193;51.032;6.356;2022-11-10T03:24:30;9.17;;;2.00;;
10295;SDS011;5193;51.032;6.356;2022-11-10T03:26:56;10.60;;;1.83;;
10295;SDS011;5193;51.032;6.356;2022-11-10T03:29:21;6.07;;;1.60;;
10295;SDS011;5193;51.032;6.356;2022-11-10T03:31:47;9.60;;;1.97;;
10295;SDS011;5193;51.032;6.356;2022-11-10T03:34:13;11.63;;;1.93;;
10295;SDS011;5193;51.032;6.356;2022-11-10T03:36:38;12.27;;;2.20;;
10295;SDS011;5193;51.032;6.356;2022-11-10T03:39:04;7.63;;;2.20;;
10295;SDS011;5193;51.032;6.356;2022-11-10T03:41:29;8.60;;;1.47;;
10295;SDS011;5193;51.032;6.356;2022-11-10T03:43:55;12.73;;;2.30;;
10295;SDS011;5193;51.032;6.356;2022-11-10T03:46:21;8.40;;;2.17;;
10295;SDS011;5193;51.032;6.356;2022-11-10T03:48:47;8.40;;;2.20;;
10295;SDS011;5193;51.032;6.356;2022-11-10T03:51:12;9.23;;;2.10;;
10295;SDS011;5193;51.032;6.356;2022-11-10T03:53:38;7.00;;;1.80;;
10295;SDS011;5193;51.032;6.356;2022-11-10T03:56:04;8.00;;;1.53;;
10295;SDS011;5193;51.032;6.356;2022-11-10T03:58:30;7.13;;;2.07;;
10295;SDS011;5193;51.032;6.356;2022-11-10T04:00:56;10.27;;;1.93;;
10295;SDS011;5193;51.032;6.356;2022-11-10T04:03:22;9.13;;;1.40;;
10295;SDS011;5193;51.032;6.356;2022-11-10T04:05:48;13.07;;;2.50;;
10295;SDS011;5193;51.032;6.356;2022-11-10T04:08:32;7.03;;;1.97;;
10295;SDS011;5193;51.032;6.356;2022-11-10T04:11:16;10.07;;;2.20;;
10295;SDS011;5193;51.032;6.356;2022-11-10T04:14:02;10.97;;;1.90;;
10295;SDS011;5193;51.032;6.356;2022-11-10T04:16:46;8.63;;;2.03;;
10295;SDS011;5193;51.032;6.356;2022-11-10T04:19:12;8.30;;;1.50;;
10295;SDS011;5193;51.032;6.356;2022-11-10T04:21:37;6.53;;;1.93;;
10295;SDS011;5193;51.032;6.356;2022-11-10T04:24:03;15.07;;;1.73;;
10295;SDS011;5193;51.032;6.356;2022-11-10T04:26:29;8.53;;;2.10;;
10295;SDS011;5193;51.032;6.356;2022-11-10T04:28:55;11.40;;;2.00;;
10295;SDS011;5193;51.032;6.356;2022-11-10T04:31:23;6.07;;;1.90;;
10295;SDS011;5193;51.032;6.356;2022-11-10T04:33:50;11.73;;;2.33;;
10295;SDS011;5193;51.032;6.356;2022-11-10T04:36:17;8.77;;;2.17;;
10295;SDS011;5193;51.032;6.356;2022-11-10T04:38:44;9.30;;;1.93;;
10295;SDS011;5193;51.032;6.356;2022-11-10T04:41:10;16.33;;;2.50;;
10295;SDS011;5193;51.032;6.356;2022-11-10T04:43:36;10.87;;;1.80;;
10295;SDS011;5193;51.032;6.356;2022-11-10T04:46:02;10.00;;;2.40;;
10295;SDS011;5193;51.032;6.356;2022-11-10T04:48:29;9.23;;;1.80;;
10295;SDS011;5193;51.032;6.356;2022-11-10T04:50:56;10.10;;;1.80;;
10295;SDS011;5193;51.032;6.356;2022-11-10T04:53:22;7.23;;;2.03;;
10295;SDS011;5193;51.032;6.356;2022-11-10T04:55:49;13.30;;;2.10;;
10295;SDS011;5193;51.032;6.356;2022-11-10T04:58:15;13.90;;;2.20;;
10295;SDS011;5193;51.032;6.356;2022-11-10T05:00:40;9.20;;;2.03;;
10295;SDS011;5193;51.032;6.356;2022-11-10T05:03:08;10.83;;;1.90;;
10295;SDS011;5193;51.032;6.356;2022-11-10T05:05:35;7.63;;;2.23;;
10295;SDS011;5193;51.032;6.356;2022-11-10T05:08:01;8.63;;;2.03;;
10295;SDS011;5193;51.032;6.356;2022-11-10T05:10:27;8.67;;;1.90;;
10295;SDS011;5193;51.032;6.356;2022-11-10T05:12:53;14.03;;;2.40;;
10295;SDS011;5193;51.032;6.356;2022-11-10T05:15:22;13.87;;;2.17;;
10295;SDS011;5193;51.032;6.356;2022-11-10T05:17:49;9.13;;;2.13;;
10295;SDS011;5193;51.032;6.356;2022-11-10T05:20:16;7.93;;;1.80;;
10295;SDS011;5193;51.032;6.356;2022-11-10T05:22:43;11.47;;;2.60;;
10295;SDS011;5193;51.032;6.356;2022-11-10T05:25:10;12.30;;;2.87;;
10295;SDS011;5193;51.032;6.356;2022-11-10T05:27:36;10.97;;;4.33;;
10295;SDS011;5193;51.032;6.356;2022-11-10T05:30:02;10.47;;;4.97;;
10295;SDS011;5193;51.032;6.356;2022-11-10T05:32:28;13.17;;;4.43;;
10295;SDS011;5193;51.032;6.356;2022-11-10T05:34:53;9.63;;;2.20;;
10295;SDS011;5193;51.032;6.356;2022-11-10T05:37:19;7.23;;;2.07;;
10295;SDS011;5193;51.032;6.356;2022-11-10T05:39:45;14.93;;;3.07;;
10295;SDS011;5193;51.032;6.356;2022-11-10T05:42:11;10.70;;;2.70;;
10295;SDS011;5193;51.032;6.356;2022-11-10T05:44:37;10.37;;;2.60;;
10295;SDS011;5193;51.032;6.356;2022-11-10T05:47:02;9.23;;;2.37;;
10295;SDS011;5193;51.032;6.356;2022-11-10T05:49:28;8.33;;;2.07;;
10295;SDS011;5193;51.032;6.356;2022-11-10T05:51:53;9.93;;;2.10;;
10295;SDS011;5193;51.032;6.356;2022-11-10T05:54:19;5.93;;;1.67;;
10295;SDS011;5193;51.032;6.356;2022-11-10T05:56:44;10.37;;;1.90;;
10295;SDS011;5193;51.032;6.356;2022-11-10T05:59:10;12.20;;;2.40;;
10295;SDS011;5193;51.032;6.356;2022-11-10T06:01:35;10.60;;;2.27;;
10295;SDS011;5193;51.032;6.356;2022-11-10T06:04:01;8.10;;;1.73;;
10295;SDS011;5193;51.032;6.356;2022-11-10T06:06:26;13.57;;;2.03;;
10295;SDS011;5193;51.032;6.356;2022-11-10T06:08:52;9.67;;;2.27;;
10295;SDS011;5193;51.032;6.356;2022-11-10T06:11:18;10.67;;;1.90;;
10295;SDS011;5193;51.032;6.356;2022-11-10T06:13:44;9.80;;;1.63;;
10295;SDS011;5193;51.032;6.356;2022-11-10T06:16:10;15.10;;;2.37;;
10295;SDS011;5193;51.032;6.356;2022-11-10T06:18:35;10.10;;;2.50;;
10295;SDS011;5193;51.032;6.356;2022-11-10T06:21:01;12.53;;;1.90;;
10295;SDS011;5193;51.032;6.356;2022-11-10T06:23:26;12.90;;;1.77;;
10295;SDS011;5193;51.032;6.356;2022-11-10T06:25:52;9.70;;;1.87;;
10295;SDS011;5193;51.032;6.356;2022-11-10T06:28:17;10.13;;;2.30;;
10295;SDS011;5193;51.032;6.356;2022-11-10T06:30:43;9.60;;;2.00;;
10295;SDS011;5193;51.032;6.356;2022-11-10T06:33:08;10.07;;;1.80;;
10295;SDS011;5193;51.032;6.356;2022-11-10T06:35:34;6.03;;;1.73;;
10295;SDS011;5193;51.032;6.356;2022-11-10T06:38:00;14.93;;;2.23;;
10295;SDS011;5193;51.032;6.356;2022-11-10T06:40:28;8.17;;;2.03;;
10295;SDS011;5193;51.032;6.356;2022-11-10T06:42:54;12.23;;;2.37;;
10295;SDS011;5193;51.032;6.356;2022-11-10T06:45:20;10.33;;;1.70;;
10295;SDS011;5193;51.032;6.356;2022-11-10T06:47:46;6.97;;;1.50;;
10295;SDS011;5193;51.032;6.356;2022-11-10T06:50:12;9.03;;;1.77;;
10295;SDS011;5193;51.032;6.356;2022-11-10T06:52:38;14.60;;;2.23;;
10295;SDS011;5193;51.032;6.356;2022-11-10T06:55:03;11.03;;;2.47;;
10295;SDS011;5193;51.032;6.356;2022-11-10T06:57:35;12.03;;;1.90;;
10295;SDS011;5193;51.032;6.356;2022-11-10T07:00:02;8.60;;;2.50;;
10295;SDS011;5193;51.032;6.356;2022-11-10T07:02:28;11.87;;;1.97;;
10295;SDS011;5193;51.032;6.356;2022-11-10T07:04:54;10.07;;;1.80;;
10295;SDS011;5193;51.032;6.356;2022-11-10T07:07:20;10.33;;;1.93;;
10295;SDS011;5193;51.032;6.356;2022-11-10T07:09:45;11.60;;;2.20;;
10295;SDS011;5193;51.032;6.356;2022-11-10T07:12:11;15.83;;;2.40;;
10295;SDS011;5193;51.032;6.356;2022-11-10T07:14:36;11.23;;;2.23;;
10295;SDS011;5193;51.032;6.356;2022-11-10T07:17:02;14.63;;;2.37;;
10295;SDS011;5193;51.032;6.356;2022-11-10T07:19:28;4.93;;;1.80;;
10295;SDS011;5193;51.032;6.356;2022-11-10T07:21:53;11.63;;;2.40;;
10295;SDS011;5193;51.032;6.356;2022-11-10T07:24:19;11.03;;;2.43;;
10295;SDS011;5193;51.032;6.356;2022-11-10T07:26:44;10.63;;;2.40;;
10295;SDS011;5193;51.032;6.356;2022-11-10T07:29:10;12.23;;;2.60;;
10295;SDS011;5193;51.032;6.356;2022-11-10T07:31:35;15.07;;;2.40;;
10295;SDS011;5193;51.032;6.356;2022-11-10T07:34:01;13.77;;;2.63;;
10295;SDS011;5193;51.032;6.356;2022-11-10T07:36:26;10.77;;;2.13;;
10295;SDS011;5193;51.032;6.356;2022-11-10T07:38:53;9.60;;;2.10;;
10295;SDS011;5193;51.032;6.356;2022-11-10T07:41:19;9.97;;;1.90;;
10295;SDS011;5193;51.032;6.356;2022-11-10T07:43:45;15.00;;;2.70;;
10295;SDS011;5193;51.032;6.356;2022-11-10T07:46:11;8.87;;;2.43;;
10295;SDS011;5193;51.032;6.356;2022-11-10T07:48:36;9.00;;;1.80;;
10295;SDS011;5193;51.032;6.356;2022-11-10T07:51:02;12.60;;;2.17;;
10295;SDS011;5193;51.032;6.356;2022-11-10T07:53:27;12.37;;;2.80;;
10295;SDS011;5193;51.032;6.356;2022-11-10T07:55:53;12.47;;;2.47;;
10295;SDS011;5193;51.032;6.356;2022-11-10T07:58:19;11.23;;;1.87;;
10295;SDS011;5193;51.032;6.356;2022-11-10T08:00:45;11.40;;;2.53;;
10295;SDS011;5193;51.032;6.356;2022-11-10T08:03:13;12.03;;;2.10;;
10295;SDS011;5193;51.032;6.356;2022-11-10T08:05:43;8.80;;;1.80;;
10295;SDS011;5193;51.032;6.356;2022-11-10T08:08:09;10.43;;;2.50;;
10295;SDS011;5193;51.032;6.356;2022-11-10T08:10:36;9.23;;;2.20;;
10295;SDS011;5193;51.032;6.356;2022-11-10T08:13:03;7.83;;;1.97;;
10295;SDS011;5193;51.032;6.356;2022-11-10T08:15:30;9.73;;;2.47;;
10295;SDS011;5193;51.032;6.356;2022-11-10T08:17:58;16.10;;;2.03;;
10295;SDS011;5193;51.032;6.356;2022-11-10T08:20:25;13.17;;;2.50;;
10295;SDS011;5193;51.032;6.356;2022-11-10T08:23:02;9.03;;;2.37;;
10295;SDS011;5193;51.032;6.356;2022-11-10T08:25:30;9.83;;;2.07;;
10295;SDS011;5193;51.032;6.356;2022-11-10T08:28:13;12.70;;;2.20;;
10295;SDS011;5193;51.032;6.356;2022-11-10T08:30:41;11.80;;;2.30;;
10295;SDS011;5193;51.032;6.356;2022-11-10T08:33:09;15.43;;;2.70;;
10295;SDS011;5193;51.032;6.356;2022-11-10T08:35:39;8.30;;;1.93;;
10295;SDS011;5193;51.032;6.356;2022-11-10T08:38:07;12.03;;;2.30;;
10295;SDS011;5193;51.032;6.356;2022-11-10T08:40:36;11.87;;;2.80;;
10295;SDS011;5193;51.032;6.356;2022-11-10T08:43:02;8.73;;;2.13;;
10295;SDS011;5193;51.032;6.356;2022-11-10T08:45:31;18.20;;;3.07;;
10295;SDS011;5193;51.032;6.356;2022-11-10T08:47:59;12.43;;;2.73;;
10295;SDS011;5193;51.032;6.356;2022-11-10T08:50:26;8.53;;;2.07;;
10295;SDS011;5193;51.032;6.356;2022-11-10T08:52:52;10.60;;;2.50;;
10295;SDS011;5193;51.032;6.356;2022-11-10T08:55:18;12.43;;;2.30;;
10295;SDS011;5193;51.032;6.356;2022-11-10T08:57:44;10.57;;;2.10;;
10295;SDS011;5193;51.032;6.356;2022-11-10T09:00:11;21.30;;;2.80;;
10295;SDS011;5193;51.032;6.356;2022-11-10T09:02:37;13.47;;;2.57;;
10295;SDS011;5193;51.032;6.356;2022-11-10T09:05:03;18.80;;;2.70;;
10295;SDS011;5193;51.032;6.356;2022-11-10T09:07:29;6.87;;;2.17;;
10295;SDS011;5193;51.032;6.356;2022-11-10T09:09:55;14.50;;;2.43;;
10295;SDS011;5193;51.032;6.356;2022-11-10T09:12:21;13.90;;;2.23;;
10295;SDS011;5193;51.032;6.356;2022-11-10T09:14:46;14.57;;;2.90;;
10295;SDS011;5193;51.032;6.356;2022-11-10T09:17:12;15.60;;;3.13;;
10295;SDS011;5193;51.032;6.356;2022-11-10T09:19:37;14.60;;;2.73;;
10295;SDS011;5193;51.032;6.356;2022-11-10T09:22:03;12.73;;;2.83;;
10295;SDS011;5193;51.032;6.356;2022-11-10T09:24:29;14.83;;;2.93;;
10295;SDS011;5193;51.032;6.356;2022-11-10T09:26:54;8.23;;;1.87;;
10295;SDS011;5193;51.032;6.356;2022-11-10T09:29:20;9.13;;;2.20;;
10295;SDS011;5193;51.032;6.356;2022-11-10T09:31:46;14.10;;;2.50;;
10295;SDS011;5193;51.032;6.356;2022-11-10T09:34:12;7.53;;;2.47;;
10295;SDS011;5193;51.032;6.356;2022-11-10T09:36:38;9.17;;;2.30;;
10295;SDS011;5193;51.032;6.356;2022-11-10T09:39:04;9.33;;;2.10;;
10295;SDS011;5193;51.032;6.356;2022-11-10T09:41:31;10.70;;;1.87;;
10295;SDS011;5193;51.032;6.356;2022-11-10T09:44:01;14.53;;;2.30;;
10295;SDS011;5193;51.032;6.356;2022-11-10T09:46:36;15.67;;;2.83;;
10295;SDS011;5193;51.032;6.356;2022-11-10T09:51:40;12.03;;;1.67;;
10295;SDS011;5193;51.032;6.356;2022-11-10T09:56:51;11.03;;;1.90;;
10295;SDS011;5193;51.032;6.356;2022-11-10T09:59:24;13.77;;;2.30;;
10295;SDS011;5193;51.032;6.356;2022-11-10T10:05:03;16.13;;;2.33;;
10295;SDS011;5193;51.032;6.356;2022-11-10T10:13:13;8.47;;;2.17;;
10295;SDS011;5193;51.032;6.356;2022-11-10T10:15:56;11.87;;;2.03;;
10295;SDS011;5193;51.032;6.356;2022-11-10T10:24:22;7.83;;;1.80;;
10295;SDS011;5193;51.032;6.356;2022-11-10T10:26:57;9.50;;;2.03;;
10295;SDS011;5193;51.032;6.356;2022-11-10T10:29:27;7.80;;;1.70;;
10295;SDS011;5193;51.032;6.356;2022-11-10T10:31:59;9.93;;;1.60;;
10295;SDS011;5193;51.032;6.356;2022-11-10T10:34:29;11.30;;;2.03;;
10295;SDS011;5193;51.032;6.356;2022-11-10T10:36:55;12.67;;;2.30;;
10295;SDS011;5193;51.032;6.356;2022-11-10T10:39:28;9.73;;;2.13;;
10295;SDS011;5193;51.032;6.356;2022-11-10T10:42:01;6.10;;;1.50;;
10295;SDS011;5193;51.032;6.356;2022-11-10T10:44:31;9.10;;;2.00;;
10295;SDS011;5193;51.032;6.356;2022-11-10T10:46:57;7.43;;;1.73;;
10295;SDS011;5193;51.032;6.356;2022-11-10T10:49:28;12.37;;;2.13;;
10295;SDS011;5193;51.032;6.356;2022-11-10T10:52:04;13.80;;;2.50;;
10295;SDS011;5193;51.032;6.356;2022-11-10T10:54:31;8.70;;;1.67;;
10295;SDS011;5193;51.032;6.356;2022-11-10T10:59:29;8.60;;;1.70;;
10295;SDS011;5193;51.032;6.356;2022-11-10T11:01:56;10.63;;;1.73;;
10295;SDS011;5193;51.032;6.356;2022-11-10T11:06:56;10.67;;;1.63;;
10295;SDS011;5193;51.032;6.356;2022-11-10T11:12:01;9.93;;;1.97;;
10295;SDS011;5193;51.032;6.356;2022-11-10T11:14:44;11.10;;;1.70;;
10295;SDS011;5193;51.032;6.356;2022-11-10T11:17:11;6.97;;;1.23;;
10295;SDS011;5193;51.032;6.356;2022-11-10T11:19:45;8.00;;;1.60;;
10295;SDS011;5193;51.032;6.356;2022-11-10T11:25:15;9.23;;;1.47;;
10295;SDS011;5193;51.032;6.356;2022-11-10T11:30:37;8.93;;;1.80;;
10295;SDS011;5193;51.032;6.356;2022-11-10T11:36:08;8.33;;;1.43;;
10295;SDS011;5193;51.032;6.356;2022-11-10T11:41:51;8.53;;;1.77;;
10295;SDS011;5193;51.032;6.356;2022-11-10T11:44:44;10.57;;;1.83;;
10295;SDS011;5193;51.032;6.356;2022-11-10T11:47:20;10.23;;;1.63;;
10295;SDS011;5193;51.032;6.356;2022-11-10T12:04:10;10.17;;;1.47;;
10295;SDS011;5193;51.032;6.356;2022-11-10T12:20:47;6.53;;;2.00;;
10295;SDS011;5193;51.032;6.356;2022-11-10T12:28:17;5.83;;;1.03;;
10295;SDS011;5193;51.032;6.356;2022-11-10T12:30:49;3.93;;;1.43;;
10295;SDS011;5193;51.032;6.356;2022-11-10T12:36:01;4.67;;;1.60;;
10295;SDS011;5193;51.032;6.356;2022-11-10T12:41:13;6.13;;;1.50;;
10295;SDS011;5193;51.032;6.356;2022-11-10T12:43:44;6.33;;;1.50;;
10295;SDS011;5193;51.032;6.356;2022-11-10T12:46:36;6.87;;;1.97;;
10295;SDS011;5193;51.032;6.356;2022-11-10T12:49:06;10.30;;;1.70;;
10295;SDS011;5193;51.032;6.356;2022-11-10T12:54:14;5.10;;;1.40;;
10295;SDS011;5193;51.032;6.356;2022-11-10T12:56:43;4.97;;;1.37;;
10295;SDS011;5193;51.032;6.356;2022-11-10T13:01:45;7.83;;;1.50;;
10295;SDS011;5193;51.032;6.356;2022-11-10T13:04:13;5.47;;;1.20;;
10295;SDS011;5193;51.032;6.356;2022-11-10T13:07:23;6.10;;;1.50;;
10295;SDS011;5193;51.032;6.356;2022-11-10T13:09:31;7.33;;;1.30;;
10295;SDS011;5193;51.032;6.356;2022-11-10T13:12:06;12.67;;;1.77;;
10295;SDS011;5193;51.032;6.356;2022-11-10T13:14:39;10.93;;;2.30;;
10295;SDS011;5193;51.032;6.356;2022-11-10T13:17:05;4.87;;;1.63;;
10295;SDS011;5193;51.032;6.356;2022-11-10T13:34:40;10.77;;;1.73;;
10295;SDS011;5193;51.032;6.356;2022-11-10T13:45:35;7.17;;;1.40;;
10295;SDS011;5193;51.032;6.356;2022-11-10T13:53:31;3.17;;;1.13;;
10295;SDS011;5193;51.032;6.356;2022-11-10T13:58:35;3.97;;;1.13;;
10295;SDS011;5193;51.032;6.356;2022-11-10T14:06:23;8.07;;;1.20;;
10295;SDS011;5193;51.032;6.356;2022-11-10T14:09:04;4.23;;;1.00;;
10295;SDS011;5193;51.032;6.356;2022-11-10T14:11:46;5.77;;;1.53;;
10295;SDS011;5193;51.032;6.356;2022-11-10T14:14:18;5.33;;;1.40;;
10295;SDS011;5193;51.032;6.356;2022-11-10T14:16:49;4.00;;;1.43;;
10295;SDS011;5193;51.032;6.356;2022-11-10T14:21:55;6.30;;;1.30;;
10295;SDS011;5193;51.032;6.356;2022-11-10T14:24:29;3.77;;;1.40;;
10295;SDS011;5193;51.032;6.356;2022-11-10T14:27:20;5.73;;;1.30;;
10295;SDS011;5193;51.032;6.356;2022-11-10T14:29:48;7.30;;;1.30;;
10295;SDS011;5193;51.032;6.356;2022-11-10T14:32:26;3.93;;;1.23;;
10295;SDS011;5193;51.032;6.356;2022-11-10T14:34:52;4.47;;;1.30;;
10295;SDS011;5193;51.032;6.356;2022-11-10T14:37:26;4.37;;;0.90;;
10295;SDS011;5193;51.032;6.356;2022-11-10T14:39:59;5.63;;;1.07;;
10295;SDS011;5193;51.032;6.356;2022-11-10T14:42:27;6.93;;;1.43;;
10295;SDS011;5193;51.032;6.356;2022-11-10T14:45:10;5.97;;;1.67;;
10295;SDS011;5193;51.032;6.356;2022-11-10T14:47:42;5.07;;;1.37;;
10295;SDS011;5193;51.032;6.356;2022-11-10T14:52:50;2.73;;;1.17;;
10295;SDS011;5193;51.032;6.356;2022-11-10T14:55:25;3.57;;;1.20;;
10295;SDS011;5193;51.032;6.356;2022-11-10T14:58:04;7.43;;;1.30;;
10295;SDS011;5193;51.032;6.356;2022-11-10T15:00:48;5.17;;;1.10;;
10295;SDS011;5193;51.032;6.356;2022-11-10T15:03:56;8.07;;;1.50;;
10295;SDS011;5193;51.032;6.356;2022-11-10T15:06:05;10.57;;;1.63;;
10295;SDS011;5193;51.032;6.356;2022-11-10T15:08:33;6.13;;;2.23;;
10295;SDS011;5193;51.032;6.356;2022-11-10T15:11:00;5.87;;;1.30;;
10295;SDS011;5193;51.032;6.356;2022-11-10T15:15:51;3.27;;;1.37;;
10295;SDS011;5193;51.032;6.356;2022-11-10T15:18:27;5.50;;;1.40;;
10295;SDS011;5193;51.032;6.356;2022-11-10T15:21:12;5.80;;;1.93;;
10295;SDS011;5193;51.032;6.356;2022-11-10T15:23:39;5.27;;;1.20;;
10295;SDS011;5193;51.032;6.356;2022-11-10T15:26:05;8.37;;;1.33;;
10295;SDS011;5193;51.032;6.356;2022-11-10T15:28:47;6.80;;;1.83;;
10295;SDS011;5193;51.032;6.356;2022-11-10T15:31:20;7.00;;;1.30;;
10295;SDS011;5193;51.032;6.356;2022-11-10T15:33:54;8.17;;;1.30;;
10295;SDS011;5193;51.032;6.356;2022-11-10T15:41:25;6.07;;;1.53;;
10295;SDS011;5193;51.032;6.356;2022-11-10T15:43:54;5.40;;;1.60;;
10295;SDS011;5193;51.032;6.356;2022-11-10T15:46:21;4.90;;;1.17;;
10295;SDS011;5193;51.032;6.356;2022-11-10T15:48:49;5.03;;;1.00;;
10295;SDS011;5193;51.032;6.356;2022-11-10T15:51:16;5.13;;;1.10;;
10295;SDS011;5193;51.032;6.356;2022-11-10T15:53:47;6.07;;;1.00;;
10295;SDS011;5193;51.032;6.356;2022-11-10T15:56:14;4.87;;;1.60;;
10295;SDS011;5193;51.032;6.356;2022-11-10T15:58:45;3.37;;;1.80;;
10295;SDS011;5193;51.032;6.356;2022-11-10T16:01:13;6.73;;;1.80;;
10295;SDS011;5193;51.032;6.356;2022-11-10T16:03:40;5.90;;;1.27;;
10295;SDS011;5193;51.032;6.356;2022-11-10T16:06:06;6.40;;;1.70;;
10295;SDS011;5193;51.032;6.356;2022-11-10T16:08:34;5.07;;;1.50;;
10295;SDS011;5193;51.032;6.356;2022-11-10T16:11:00;5.53;;;1.17;;
10295;SDS011;5193;51.032;6.356;2022-11-10T16:13:27;6.50;;;1.30;;
10295;SDS011;5193;51.032;6.356;2022-11-10T16:15:54;6.03;;;1.20;;
10295;SDS011;5193;51.032;6.356;2022-11-10T16:18:21;6.13;;;1.57;;
10295;SDS011;5193;51.032;6.356;2022-11-10T16:20:48;2.93;;;1.20;;
10295;SDS011;5193;51.032;6.356;2022-11-10T16:23:15;6.73;;;1.57;;
10295;SDS011;5193;51.032;6.356;2022-11-10T16:25:41;4.03;;;1.10;;
10295;SDS011;5193;51.032;6.356;2022-11-10T16:28:09;5.67;;;1.27;;
10295;SDS011;5193;51.032;6.356;2022-11-10T16:30:36;7.50;;;1.60;;
10295;SDS011;5193;51.032;6.356;2022-11-10T16:33:02;5.00;;;1.30;;
10295;SDS011;5193;51.032;6.356;2022-11-10T16:35:28;4.37;;;1.10;;
10295;SDS011;5193;51.032;6.356;2022-11-10T16:37:54;5.17;;;1.30;;
10295;SDS011;5193;51.032;6.356;2022-11-10T16:40:20;3.60;;;1.40;;
10295;SDS011;5193;51.032;6.356;2022-11-10T16:42:47;6.17;;;1.90;;
10295;SDS011;5193;51.032;6.356;2022-11-10T16:45:17;5.00;;;1.40;;
10295;SDS011;5193;51.032;6.356;2022-11-10T16:47:45;4.87;;;1.57;;
10295;SDS011;5193;51.032;6.356;2022-11-10T16:52:56;5.67;;;1.50;;
10295;SDS011;5193;51.032;6.356;2022-11-10T16:55:22;6.50;;;1.70;;
10295;SDS011;5193;51.032;6.356;2022-11-10T16:57:47;5.83;;;1.83;;
10295;SDS011;5193;51.032;6.356;2022-11-10T17:00:14;4.67;;;2.27;;
10295;SDS011;5193;51.032;6.356;2022-11-10T17:02:40;8.40;;;2.53;;
10295;SDS011;5193;51.032;6.356;2022-11-10T17:05:10;4.33;;;1.53;;
10295;SDS011;5193;51.032;6.356;2022-11-10T17:07:38;2.60;;;1.50;;
10295;SDS011;5193;51.032;6.356;2022-11-10T17:10:04;8.83;;;1.90;;
10295;SDS011;5193;51.032;6.356;2022-11-10T17:12:31;5.60;;;2.00;;
10295;SDS011;5193;51.032;6.356;2022-11-10T17:14:56;5.27;;;1.67;;
10295;SDS011;5193;51.032;6.356;2022-11-10T17:17:22;5.07;;;2.20;;
10295;SDS011;5193;51.032;6.356;2022-11-10T17:19:48;8.90;;;2.37;;
10295;SDS011;5193;51.032;6.356;2022-11-10T17:22:16;9.53;;;1.90;;
10295;SDS011;5193;51.032;6.356;2022-11-10T17:24:44;11.10;;;2.50;;
10295;SDS011;5193;51.032;6.356;2022-11-10T17:27:14;8.90;;;2.20;;
10295;SDS011;5193;51.032;6.356;2022-11-10T17:29:41;4.70;;;1.67;;